sensor_id;sensor_type;location;lat;lon;timestamp;pressure;altitude;pressure_sealevel;temperature;humidity
35577;BME280;21680;52.400;16.920;2023-05-12T00:01:24;101080.15;;;12.49;42.06
35577;BME280;21680;52.400;16.920;2023-05-12T00:03:49;101079.06;;;12.45;42.20
35577;BME280;21680;52.400;16.920;2023-05-12T00:06:18;101077.98;;;12.41;42.28
35577;BME280;21680;52.400;16.920;2023-05-12T00:08:43;101078.84;;;12.38;42.32
35577;BME280;21680;52.400;16.920;2023-05-12T00:11:09;101075.98;;;12.34;42.31
35577;BME280;21680;52.400;16.920;2023-05-12T00:13:34;101075.27;;;12.30;42.54
35577;BME280;21680;52.400;16.920;2023-05-12T00:16:01;101071.79;;;12.27;42.65
35577;BME280;21680;52.400;16.920;2023-05-12T00:18:26;101078.56;;;12.24;42.68
35577;BME280;21680;52.400;16.920;2023-05-12T00:20:53;101077.66;;;12.20;42.72
35577;BME280;21680;52.400;16.920;2023-05-12T00:23:19;101076.95;;;12.16;42.87
35577;BME280;21680;52.400;16.920;2023-05-12T00:25:45;101081.04;;;12.12;43.02
35577;BME280;21680;52.400;16.920;2023-05-12T00:28:10;101082.10;;;12.09;43.06
35577;BME280;21680;52.400;16.920;2023-05-12T00:30:35;101082.61;;;12.05;43.08
35577;BME280;21680;52.400;16.920;2023-05-12T00:33:00;101079.79;;;11.99;43.19
35577;BME280;21680;52.400;16.920;2023-05-12T00:35:26;101082.10;;;11.96;43.34
35577;BME280;21680;52.400;16.920;2023-05-12T00:37:51;101080.63;;;11.92;43.39
35577;BME280;21680;52.400;16.920;2023-05-12T00:40:16;101079.56;;;11.88;43.42
35577;BME280;21680;52.400;16.920;2023-05-12T00:42:41;101081.67;;;11.85;43.44
35577;BME280;21680;52.400;16.920;2023-05-12T00:45:08;101079.36;;;11.80;43.57
35577;BME280;21680;52.400;16.920;2023-05-12T00:47:33;101085.79;;;11.76;43.70
35577;BME280;21680;52.400;16.920;2023-05-12T00:49:58;101080.40;;;11.71;43.81
35577;BME280;21680;52.400;16.920;2023-05-12T00:52:24;101078.99;;;11.66;43.92
35577;BME280;21680;52.400;16.920;2023-05-12T00:54:49;101080.42;;;11.62;43.92
35577;BME280;21680;52.400;16.920;2023-05-12T00:57:17;101079.60;;;11.56;44.05
35577;BME280;21680;52.400;16.920;2023-05-12T00:59:42;101083.72;;;11.52;44.08
35577;BME280;21680;52.400;16.920;2023-05-12T01:02:09;101082.30;;;11.47;44.21
35577;BME280;21680;52.400;16.920;2023-05-12T01:04:36;101084.59;;;11.44;44.50
35577;BME280;21680;52.400;16.920;2023-05-12T01:07:09;101088.64;;;11.40;44.59
35577;BME280;21680;52.400;16.920;2023-05-12T01:09:36;101089.30;;;11.37;44.72
35577;BME280;21680;52.400;16.920;2023-05-12T01:12:01;101092.47;;;11.34;44.71
35577;BME280;21680;52.400;16.920;2023-05-12T01:14:27;101096.20;;;11.30;44.71
35577;BME280;21680;52.400;16.920;2023-05-12T01:16:53;101094.21;;;11.26;44.77
35577;BME280;21680;52.400;16.920;2023-05-12T01:21:55;101093.67;;;11.17;44.81
35577;BME280;21680;52.400;16.920;2023-05-12T01:24:23;101092.40;;;11.13;44.91
35577;BME280;21680;52.400;16.920;2023-05-12T01:26:50;101094.02;;;11.08;44.94
35577;BME280;21680;52.400;16.920;2023-05-12T01:29:16;101090.95;;;11.04;45.12
35577;BME280;21680;52.400;16.920;2023-05-12T01:31:43;101090.75;;;11.00;45.13
35577;BME280;21680;52.400;16.920;2023-05-12T01:34:15;101095.84;;;10.98;45.31
35577;BME280;21680;52.400;16.920;2023-05-12T01:36:43;101092.73;;;10.95;45.40
35577;BME280;21680;52.400;16.920;2023-05-12T01:39:08;101095.67;;;10.93;45.39
35577;BME280;21680;52.400;16.920;2023-05-12T01:41:34;101095.75;;;10.91;45.50
35577;BME280;21680;52.400;16.920;2023-05-12T01:44:00;101100.13;;;10.89;45.57
35577;BME280;21680;52.400;16.920;2023-05-12T01:46:25;101097.93;;;10.85;45.66
35577;BME280;21680;52.400;16.920;2023-05-12T01:48:50;101103.02;;;10.83;45.78
35577;BME280;21680;52.400;16.920;2023-05-12T01:51:15;101099.95;;;10.79;45.65
35577;BME280;21680;52.400;16.920;2023-05-12T01:53:41;101108.45;;;10.77;45.81
35577;BME280;21680;52.400;16.920;2023-05-12T01:56:06;101107.48;;;10.73;45.92
35577;BME280;21680;52.400;16.920;2023-05-12T01:58:31;101106.84;;;10.71;45.98
35577;BME280;21680;52.400;16.920;2023-05-12T02:00:57;101109.69;;;10.67;46.01
35577;BME280;21680;52.400;16.920;2023-05-12T02:03:22;101110.33;;;10.64;46.03
35577;BME280;21680;52.400;16.920;2023-05-12T02:05:47;101111.10;;;10.62;46.28
35577;BME280;21680;52.400;16.920;2023-05-12T02:08:12;101112.96;;;10.60;46.37
35577;BME280;21680;52.400;16.920;2023-05-12T02:10:38;101111.06;;;10.58;46.47
35577;BME280;21680;52.400;16.920;2023-05-12T02:13:03;101114.02;;;10.56;46.55
35577;BME280;21680;52.400;16.920;2023-05-12T02:15:28;101116.28;;;10.52;46.53
35577;BME280;21680;52.400;16.920;2023-05-12T02:17:53;101118.52;;;10.50;46.61
35577;BME280;21680;52.400;16.920;2023-05-12T02:20:19;101117.35;;;10.48;46.78
35577;BME280;21680;52.400;16.920;2023-05-12T02:22:44;101121.66;;;10.47;46.65
35577;BME280;21680;52.400;16.920;2023-05-12T02:25:10;101123.06;;;10.43;46.78
35577;BME280;21680;52.400;16.920;2023-05-12T02:27:35;101123.34;;;10.40;46.87
35577;BME280;21680;52.400;16.920;2023-05-12T02:30:00;101124.14;;;10.38;46.95
35577;BME280;21680;52.400;16.920;2023-05-12T02:32:26;101124.39;;;10.36;47.00
35577;BME280;21680;52.400;16.920;2023-05-12T02:34:54;101126.44;;;10.34;47.07
35577;BME280;21680;52.400;16.920;2023-05-12T02:37:20;101130.98;;;10.32;47.05
35577;BME280;21680;52.400;16.920;2023-05-12T02:39:45;101133.58;;;10.29;47.17
35577;BME280;21680;52.400;16.920;2023-05-12T02:42:10;101131.69;;;10.27;47.26
35577;BME280;21680;52.400;16.920;2023-05-12T02:44:35;101132.49;;;10.24;47.23
35577;BME280;21680;52.400;16.920;2023-05-12T02:47:01;101132.95;;;10.21;47.36
35577;BME280;21680;52.400;16.920;2023-05-12T02:49:26;101133.02;;;10.18;47.44
35577;BME280;21680;52.400;16.920;2023-05-12T02:51:51;101136.33;;;10.16;47.45
35577;BME280;21680;52.400;16.920;2023-05-12T02:54:17;101135.48;;;10.14;47.50
35577;BME280;21680;52.400;16.920;2023-05-12T02:56:42;101135.92;;;10.12;47.66
35577;BME280;21680;52.400;16.920;2023-05-12T02:59:07;101132.08;;;10.09;47.72
35577;BME280;21680;52.400;16.920;2023-05-12T03:01:32;101133.59;;;10.06;47.77
35577;BME280;21680;52.400;16.920;2023-05-12T03:03:58;101135.45;;;10.04;47.84
35577;BME280;21680;52.400;16.920;2023-05-12T03:06:23;101136.92;;;10.03;47.83
35577;BME280;21680;52.400;16.920;2023-05-12T03:08:49;101136.10;;;10.01;48.01
35577;BME280;21680;52.400;16.920;2023-05-12T03:11:14;101135.94;;;10.00;47.95
35577;BME280;21680;52.400;16.920;2023-05-12T03:13:39;101133.34;;;9.98;48.12
35577;BME280;21680;52.400;16.920;2023-05-12T03:16:05;101133.04;;;9.96;48.13
35577;BME280;21680;52.400;16.920;2023-05-12T03:18:30;101134.89;;;9.94;48.17
35577;BME280;21680;52.400;16.920;2023-05-12T03:20:55;101133.36;;;9.92;48.25
35577;BME280;21680;52.400;16.920;2023-05-12T03:23:21;101132.34;;;9.90;48.28
35577;BME280;21680;52.400;16.920;2023-05-12T03:25:46;101135.59;;;9.90;48.34
35577;BME280;21680;52.400;16.920;2023-05-12T03:28:11;101133.27;;;9.89;48.42
35577;BME280;21680;52.400;16.920;2023-05-12T03:30:37;101133.46;;;9.89;48.51
35577;BME280;21680;52.400;16.920;2023-05-12T03:33:02;101138.46;;;9.89;48.51
35577;BME280;21680;52.400;16.920;2023-05-12T03:35:27;101135.26;;;9.89;48.48
35577;BME280;21680;52.400;16.920;2023-05-12T03:37:53;101133.42;;;9.90;48.52
35577;BME280;21680;52.400;16.920;2023-05-12T03:40:18;101137.33;;;9.91;48.64
35577;BME280;21680;52.400;16.920;2023-05-12T03:42:44;101138.92;;;9.91;48.72
35577;BME280;21680;52.400;16.920;2023-05-12T03:45:10;101141.59;;;9.91;48.75
35577;BME280;21680;52.400;16.920;2023-05-12T03:47:36;101145.52;;;9.91;48.86
35577;BME280;21680;52.400;16.920;2023-05-12T03:50:02;101146.59;;;9.91;48.79
35577;BME280;21680;52.400;16.920;2023-05-12T03:52:28;101150.55;;;9.91;48.89
35577;BME280;21680;52.400;16.920;2023-05-12T03:54:53;101150.36;;;9.91;48.87
35577;BME280;21680;52.400;16.920;2023-05-12T03:57:20;101153.94;;;9.91;48.92
35577;BME280;21680;52.400;16.920;2023-05-12T03:59:45;101151.59;;;9.92;48.99
35577;BME280;21680;52.400;16.920;2023-05-12T04:02:10;101154.40;;;9.93;49.13
35577;BME280;21680;52.400;16.920;2023-05-12T04:04:37;101155.79;;;9.94;49.24
35577;BME280;21680;52.400;16.920;2023-05-12T04:07:02;101157.73;;;9.94;49.27
35577;BME280;21680;52.400;16.920;2023-05-12T04:09:30;101155.73;;;9.95;49.29
35577;BME280;21680;52.400;16.920;2023-05-12T04:11:57;101160.34;;;9.96;49.26
35577;BME280;21680;52.400;16.920;2023-05-12T04:14:26;101163.50;;;9.98;49.36
35577;BME280;21680;52.400;16.920;2023-05-12T04:16:51;101166.09;;;10.01;49.45
35577;BME280;21680;52.400;16.920;2023-05-12T04:19:16;101166.02;;;10.03;49.42
35577;BME280;21680;52.400;16.920;2023-05-12T04:21:42;101164.34;;;10.05;49.50
35577;BME280;21680;52.400;16.920;2023-05-12T04:24:07;101163.77;;;10.06;49.55
35577;BME280;21680;52.400;16.920;2023-05-12T04:26:38;101163.36;;;10.08;49.59
35577;BME280;21680;52.400;16.920;2023-05-12T04:29:03;101167.37;;;10.11;49.61
35577;BME280;21680;52.400;16.920;2023-05-12T04:31:29;101169.04;;;10.15;49.65
35577;BME280;21680;52.400;16.920;2023-05-12T04:33:54;101170.36;;;10.18;49.67
35577;BME280;21680;52.400;16.920;2023-05-12T04:36:20;101173.52;;;10.21;49.72
35577;BME280;21680;52.400;16.920;2023-05-12T04:38:47;101171.28;;;10.23;49.72
35577;BME280;21680;52.400;16.920;2023-05-12T04:41:12;101177.20;;;10.28;49.91
35577;BME280;21680;52.400;16.920;2023-05-12T04:43:38;101173.34;;;10.31;49.79
35577;BME280;21680;52.400;16.920;2023-05-12T04:46:04;101176.27;;;10.34;49.88
35577;BME280;21680;52.400;16.920;2023-05-12T04:48:29;101175.77;;;10.38;49.88
35577;BME280;21680;52.400;16.920;2023-05-12T04:50:57;101177.02;;;10.43;49.89
35577;BME280;21680;52.400;16.920;2023-05-12T04:53:23;101182.69;;;10.49;49.96
35577;BME280;21680;52.400;16.920;2023-05-12T04:55:48;101185.01;;;10.55;49.83
35577;BME280;21680;52.400;16.920;2023-05-12T04:58:15;101186.02;;;10.61;49.96
35577;BME280;21680;52.400;16.920;2023-05-12T05:00:40;101183.00;;;10.66;49.97
35577;BME280;21680;52.400;16.920;2023-05-12T05:03:05;101187.66;;;10.70;49.92
35577;BME280;21680;52.400;16.920;2023-05-12T05:05:31;101187.35;;;10.74;49.92
35577;BME280;21680;52.400;16.920;2023-05-12T05:07:56;101192.52;;;10.80;49.89
35577;BME280;21680;52.400;16.920;2023-05-12T05:10:22;101189.57;;;10.87;49.90
35577;BME280;21680;52.400;16.920;2023-05-12T05:12:47;101191.44;;;10.95;49.89
35577;BME280;21680;52.400;16.920;2023-05-12T05:15:12;101188.65;;;11.02;49.99
35577;BME280;21680;52.400;16.920;2023-05-12T05:17:37;101190.73;;;11.10;49.93
35577;BME280;21680;52.400;16.920;2023-05-12T05:20:03;101188.34;;;11.16;49.95
35577;BME280;21680;52.400;16.920;2023-05-12T05:22:28;101188.02;;;11.24;50.00
35577;BME280;21680;52.400;16.920;2023-05-12T05:24:54;101190.09;;;11.31;49.88
35577;BME280;21680;52.400;16.920;2023-05-12T05:27:19;101186.59;;;11.38;49.80
35577;BME280;21680;52.400;16.920;2023-05-12T05:29:44;101187.08;;;11.45;49.88
35577;BME280;21680;52.400;16.920;2023-05-12T05:32:10;101188.45;;;11.51;49.69
35577;BME280;21680;52.400;16.920;2023-05-12T05:34:35;101185.33;;;11.57;49.83
35577;BME280;21680;52.400;16.920;2023-05-12T05:37:00;101191.46;;;11.65;49.78
35577;BME280;21680;52.400;16.920;2023-05-12T05:39:26;101192.91;;;11.74;49.69
35577;BME280;21680;52.400;16.920;2023-05-12T05:41:55;101193.29;;;11.83;49.58
35577;BME280;21680;52.400;16.920;2023-05-12T05:44:20;101190.41;;;11.92;49.68
35577;BME280;21680;52.400;16.920;2023-05-12T05:46:45;101192.66;;;11.99;49.56
35577;BME280;21680;52.400;16.920;2023-05-12T05:49:10;101191.63;;;12.07;49.53
35577;BME280;21680;52.400;16.920;2023-05-12T05:51:36;101192.93;;;12.14;49.54
35577;BME280;21680;52.400;16.920;2023-05-12T05:54:01;101197.28;;;12.21;49.50
35577;BME280;21680;52.400;16.920;2023-05-12T05:56:26;101197.86;;;12.29;49.43
35577;BME280;21680;52.400;16.920;2023-05-12T05:58:52;101196.70;;;12.35;49.27
35577;BME280;21680;52.400;16.920;2023-05-12T06:01:17;101199.45;;;12.42;49.24
35577;BME280;21680;52.400;16.920;2023-05-12T06:03:45;101203.92;;;12.51;49.21
35577;BME280;21680;52.400;16.920;2023-05-12T06:06:11;101205.90;;;12.59;49.18
35577;BME280;21680;52.400;16.920;2023-05-12T06:08:40;101212.57;;;12.67;49.10
35577;BME280;21680;52.400;16.920;2023-05-12T06:11:05;101210.15;;;12.73;48.96
35577;BME280;21680;52.400;16.920;2023-05-12T06:13:32;101212.36;;;12.80;48.92
35577;BME280;21680;52.400;16.920;2023-05-12T06:15:57;101215.23;;;12.88;48.94
35577;BME280;21680;52.400;16.920;2023-05-12T06:18:22;101216.31;;;12.96;48.90
35577;BME280;21680;52.400;16.920;2023-05-12T06:20:48;101214.79;;;13.05;48.89
35577;BME280;21680;52.400;16.920;2023-05-12T06:23:13;101213.19;;;13.13;48.71
35577;BME280;21680;52.400;16.920;2023-05-12T06:25:38;101214.69;;;13.20;48.72
35577;BME280;21680;52.400;16.920;2023-05-12T06:28:04;101213.77;;;13.28;48.62
35577;BME280;21680;52.400;16.920;2023-05-12T06:30:29;101219.04;;;13.39;48.53
35577;BME280;21680;52.400;16.920;2023-05-12T06:32:54;101216.66;;;13.52;48.44
35577;BME280;21680;52.400;16.920;2023-05-12T06:35:20;101217.02;;;13.59;48.39
35577;BME280;21680;52.400;16.920;2023-05-12T06:37:45;101219.54;;;13.67;48.30
35577;BME280;21680;52.400;16.920;2023-05-12T06:40:14;101222.40;;;13.74;48.24
35577;BME280;21680;52.400;16.920;2023-05-12T06:42:41;101222.30;;;13.84;48.22
35577;BME280;21680;52.400;16.920;2023-05-12T06:45:07;101221.77;;;13.91;48.10
35577;BME280;21680;52.400;16.920;2023-05-12T06:47:32;101223.33;;;14.00;48.02
35577;BME280;21680;52.400;16.920;2023-05-12T06:49:57;101217.16;;;14.09;47.94
35577;BME280;21680;52.400;16.920;2023-05-12T06:52:22;101216.73;;;14.18;47.96
35577;BME280;21680;52.400;16.920;2023-05-12T06:54:48;101216.07;;;14.27;47.90
35577;BME280;21680;52.400;16.920;2023-05-12T06:57:14;101218.08;;;14.37;47.79
35577;BME280;21680;52.400;16.920;2023-05-12T06:59:39;101223.27;;;14.49;47.74
35577;BME280;21680;52.400;16.920;2023-05-12T07:02:04;101220.98;;;14.59;47.68
35577;BME280;21680;52.400;16.920;2023-05-12T07:04:29;101219.34;;;14.70;47.62
35577;BME280;21680;52.400;16.920;2023-05-12T07:06:55;101213.88;;;14.81;47.44
35577;BME280;21680;52.400;16.920;2023-05-12T07:09:20;101211.98;;;14.93;47.41
35577;BME280;21680;52.400;16.920;2023-05-12T07:11:46;101214.56;;;15.06;47.27
35577;BME280;21680;52.400;16.920;2023-05-12T07:14:12;101207.55;;;15.16;47.16
35577;BME280;21680;52.400;16.920;2023-05-12T07:16:37;101210.04;;;15.27;47.11
35577;BME280;21680;52.400;16.920;2023-05-12T07:19:02;101209.45;;;15.41;47.02
35577;BME280;21680;52.400;16.920;2023-05-12T07:21:29;101207.53;;;15.53;46.77
35577;BME280;21680;52.400;16.920;2023-05-12T07:23:55;101206.58;;;15.64;46.58
35577;BME280;21680;52.400;16.920;2023-05-12T07:26:20;101204.51;;;15.72;46.56
35577;BME280;21680;52.400;16.920;2023-05-12T07:28:48;101206.26;;;15.79;46.42
35577;BME280;21680;52.400;16.920;2023-05-12T07:31:14;101203.33;;;15.86;46.38
35577;BME280;21680;52.400;16.920;2023-05-12T07:33:40;101202.30;;;15.95;46.08
35577;BME280;21680;52.400;16.920;2023-05-12T07:36:06;101204.30;;;16.04;46.02
35577;BME280;21680;52.400;16.920;2023-05-12T07:38:33;101202.58;;;16.12;45.81
35577;BME280;21680;52.400;16.920;2023-05-12T07:40:59;101204.15;;;16.19;45.58
35577;BME280;21680;52.400;16.920;2023-05-12T07:43:24;101203.23;;;16.25;45.51
35577;BME280;21680;52.400;16.920;2023-05-12T07:45:50;101208.23;;;16.35;45.52
35577;BME280;21680;52.400;16.920;2023-05-12T07:48:15;101205.14;;;16.45;45.14
35577;BME280;21680;52.400;16.920;2023-05-12T07:50:41;101204.89;;;16.52;45.03
35577;BME280;21680;52.400;16.920;2023-05-12T07:53:06;101202.64;;;16.60;44.93
35577;BME280;21680;52.400;16.920;2023-05-12T07:55:32;101203.60;;;16.68;44.63
35577;BME280;21680;52.400;16.920;2023-05-12T07:57:58;101203.41;;;16.74;44.60
35577;BME280;21680;52.400;16.920;2023-05-12T08:00:24;101199.00;;;16.81;44.44
35577;BME280;21680;52.400;16.920;2023-05-12T08:02:50;101200.70;;;16.89;44.31
35577;BME280;21680;52.400;16.920;2023-05-12T08:05:15;101194.67;;;16.97;44.18
35577;BME280;21680;52.400;16.920;2023-05-12T08:07:40;101195.27;;;17.04;43.88
35577;BME280;21680;52.400;16.920;2023-05-12T08:10:09;101197.90;;;17.11;43.64
35577;BME280;21680;52.400;16.920;2023-05-12T08:12:35;101197.23;;;17.16;43.35
35577;BME280;21680;52.400;16.920;2023-05-12T08:15:01;101197.31;;;17.21;43.16
35577;BME280;21680;52.400;16.920;2023-05-12T08:17:26;101193.89;;;17.27;43.20
35577;BME280;21680;52.400;16.920;2023-05-12T08:19:51;101192.35;;;17.31;42.87
35577;BME280;21680;52.400;16.920;2023-05-12T08:22:16;101196.98;;;17.35;42.60
35577;BME280;21680;52.400;16.920;2023-05-12T08:24:42;101197.62;;;17.39;42.44
35577;BME280;21680;52.400;16.920;2023-05-12T08:27:07;101194.02;;;17.45;42.34
35577;BME280;21680;52.400;16.920;2023-05-12T08:29:33;101189.23;;;17.51;42.35
35577;BME280;21680;52.400;16.920;2023-05-12T08:31:58;101191.48;;;17.61;42.24
35577;BME280;21680;52.400;16.920;2023-05-12T08:34:24;101186.27;;;17.70;41.98
35577;BME280;21680;52.400;16.920;2023-05-12T08:36:52;101190.64;;;17.75;41.77
35577;BME280;21680;52.400;16.920;2023-05-12T08:39:18;101185.37;;;17.78;41.39
35577;BME280;21680;52.400;16.920;2023-05-12T08:41:57;101186.58;;;17.82;41.40
35577;BME280;21680;52.400;16.920;2023-05-12T08:44:27;101194.17;;;17.85;41.18
35577;BME280;21680;52.400;16.920;2023-05-12T08:46:53;101193.63;;;17.88;40.89
35577;BME280;21680;52.400;16.920;2023-05-12T08:49:21;101200.05;;;17.92;40.68
35577;BME280;21680;52.400;16.920;2023-05-12T08:51:52;101197.09;;;17.98;40.55
35577;BME280;21680;52.400;16.920;2023-05-12T08:54:19;101195.41;;;18.04;40.37
35577;BME280;21680;52.400;16.920;2023-05-12T08:56:55;101195.23;;;18.12;40.07
35577;BME280;21680;52.400;16.920;2023-05-12T08:59:22;101196.17;;;18.12;39.90
35577;BME280;21680;52.400;16.920;2023-05-12T09:01:48;101190.13;;;18.16;39.55
35577;BME280;21680;52.400;16.920;2023-05-12T09:04:14;101194.38;;;18.22;39.46
35577;BME280;21680;52.400;16.920;2023-05-12T09:06:42;101197.19;;;18.26;39.03
35577;BME280;21680;52.400;16.920;2023-05-12T09:09:09;101198.86;;;18.28;38.75
35577;BME280;21680;52.400;16.920;2023-05-12T09:11:37;101194.42;;;18.30;38.61
35577;BME280;21680;52.400;16.920;2023-05-12T09:14:04;101197.73;;;18.34;38.52
35577;BME280;21680;52.400;16.920;2023-05-12T09:16:35;101200.64;;;18.42;38.34
35577;BME280;21680;52.400;16.920;2023-05-12T09:19:01;101198.52;;;18.47;38.12
35577;BME280;21680;52.400;16.920;2023-05-12T09:21:27;101194.87;;;18.50;38.05
35577;BME280;21680;52.400;16.920;2023-05-12T09:24:02;101198.40;;;18.54;37.79
35577;BME280;21680;52.400;16.920;2023-05-12T09:26:49;101196.73;;;18.54;37.54
35577;BME280;21680;52.400;16.920;2023-05-12T09:29:15;101196.98;;;18.59;37.55
35577;BME280;21680;52.400;16.920;2023-05-12T09:31:50;101201.69;;;18.64;37.59
35577;BME280;21680;52.400;16.920;2023-05-12T09:34:16;101201.13;;;18.70;37.38
35577;BME280;21680;52.400;16.920;2023-05-12T09:36:41;101197.70;;;18.75;37.34
35577;BME280;21680;52.400;16.920;2023-05-12T09:39:08;101193.33;;;18.78;37.17
35577;BME280;21680;52.400;16.920;2023-05-12T09:41:37;101191.77;;;18.77;37.01
35577;BME280;21680;52.400;16.920;2023-05-12T09:44:04;101193.89;;;18.78;36.81
35577;BME280;21680;52.400;16.920;2023-05-12T09:46:29;101196.38;;;18.84;36.82
35577;BME280;21680;52.400;16.920;2023-05-12T09:48:55;101197.15;;;18.93;36.94
35577;BME280;21680;52.400;16.920;2023-05-12T09:51:25;101191.65;;;19.02;36.97
35577;BME280;21680;52.400;16.920;2023-05-12T09:53:51;101194.20;;;19.09;36.99
35577;BME280;21680;52.400;16.920;2023-05-12T09:56:17;101192.59;;;19.14;36.69
35577;BME280;21680;52.400;16.920;2023-05-12T09:58:46;101189.98;;;19.15;36.66
35577;BME280;21680;52.400;16.920;2023-05-12T10:01:13;101188.45;;;19.19;36.60
35577;BME280;21680;52.400;16.920;2023-05-12T10:03:47;101191.17;;;19.24;36.48
35577;BME280;21680;52.400;16.920;2023-05-12T10:06:24;101189.59;;;19.28;36.39
35577;BME280;21680;52.400;16.920;2023-05-12T10:09:01;101193.69;;;19.30;36.25
35577;BME280;21680;52.400;16.920;2023-05-12T10:11:28;101192.57;;;19.37;36.24
35577;BME280;21680;52.400;16.920;2023-05-12T10:13:55;101188.10;;;19.47;36.11
35577;BME280;21680;52.400;16.920;2023-05-12T10:16:22;101189.20;;;19.55;36.05
35577;BME280;21680;52.400;16.920;2023-05-12T10:18:49;101181.98;;;19.59;35.82
35577;BME280;21680;52.400;16.920;2023-05-12T10:21:16;101180.09;;;19.65;35.80
35577;BME280;21680;52.400;16.920;2023-05-12T10:23:43;101177.71;;;19.68;35.50
35577;BME280;21680;52.400;16.920;2023-05-12T10:26:09;101175.13;;;19.69;35.40
35577;BME280;21680;52.400;16.920;2023-05-12T10:28:36;101176.74;;;19.76;35.39
35577;BME280;21680;52.400;16.920;2023-05-12T10:31:02;101179.09;;;19.84;35.22
35577;BME280;21680;52.400;16.920;2023-05-12T10:33:29;101171.65;;;19.91;35.11
35577;BME280;21680;52.400;16.920;2023-05-12T10:35:56;101171.72;;;19.97;35.01
35577;BME280;21680;52.400;16.920;2023-05-12T10:38:21;101171.27;;;20.08;34.90
35577;BME280;21680;52.400;16.920;2023-05-12T10:40:58;101174.67;;;20.21;34.79
35577;BME280;21680;52.400;16.920;2023-05-12T10:43:47;101173.05;;;20.21;34.24
35577;BME280;21680;52.400;16.920;2023-05-12T10:46:17;101176.88;;;20.18;34.18
35577;BME280;21680;52.400;16.920;2023-05-12T10:49:06;101172.39;;;20.27;34.12
35577;BME280;21680;52.400;16.920;2023-05-12T10:51:57;101168.08;;;20.39;33.98
35577;BME280;21680;52.400;16.920;2023-05-12T10:54:23;101170.45;;;20.48;33.91
35577;BME280;21680;52.400;16.920;2023-05-12T10:56:49;101171.10;;;20.58;33.98
35577;BME280;21680;52.400;16.920;2023-05-12T10:59:21;101169.45;;;20.66;33.78
35577;BME280;21680;52.400;16.920;2023-05-12T11:04:52;101168.09;;;20.78;33.55
35577;BME280;21680;52.400;16.920;2023-05-12T11:07:26;101164.45;;;20.81;33.51
35577;BME280;21680;52.400;16.920;2023-05-12T11:09:52;101168.02;;;20.93;33.52
35577;BME280;21680;52.400;16.920;2023-05-12T11:12:18;101169.14;;;20.99;33.22
35577;BME280;21680;52.400;16.920;2023-05-12T11:14:45;101171.50;;;21.01;33.22
35577;BME280;21680;52.400;16.920;2023-05-12T11:17:11;101166.45;;;21.03;33.03
35577;BME280;21680;52.400;16.920;2023-05-12T11:19:37;101167.34;;;21.04;33.02
35577;BME280;21680;52.400;16.920;2023-05-12T11:22:08;101161.55;;;21.13;32.91
35577;BME280;21680;52.400;16.920;2023-05-12T11:24:37;101155.41;;;21.26;32.92
35577;BME280;21680;52.400;16.920;2023-05-12T11:27:04;101159.09;;;21.44;32.91
35577;BME280;21680;52.400;16.920;2023-05-12T11:29:30;101151.52;;;21.56;32.86
35577;BME280;21680;52.400;16.920;2023-05-12T11:31:56;101154.17;;;21.66;32.86
35577;BME280;21680;52.400;16.920;2023-05-12T11:34:23;101157.48;;;21.75;32.84
35577;BME280;21680;52.400;16.920;2023-05-12T11:36:53;101150.70;;;21.75;32.70
35577;BME280;21680;52.400;16.920;2023-05-12T11:39:24;101142.10;;;21.84;32.91
35577;BME280;21680;52.400;16.920;2023-05-12T11:41:52;101150.45;;;22.02;32.93
35577;BME280;21680;52.400;16.920;2023-05-12T11:44:20;101158.40;;;22.12;32.48
35577;BME280;21680;52.400;16.920;2023-05-12T11:47:01;101160.65;;;22.15;32.57
35577;BME280;21680;52.400;16.920;2023-05-12T11:49:29;101154.38;;;22.23;32.42
35577;BME280;21680;52.400;16.920;2023-05-12T11:51:58;101155.80;;;22.27;32.40
35577;BME280;21680;52.400;16.920;2023-05-12T11:54:28;101153.56;;;22.34;32.15
35577;BME280;21680;52.400;16.920;2023-05-12T11:56:55;101153.81;;;22.43;32.17
35577;BME280;21680;52.400;16.920;2023-05-12T11:59:28;101157.23;;;22.60;31.93
35577;BME280;21680;52.400;16.920;2023-05-12T12:01:54;101155.93;;;22.73;31.90
35577;BME280;21680;52.400;16.920;2023-05-12T12:04:38;101158.61;;;22.82;31.66
35577;BME280;21680;52.400;16.920;2023-05-12T12:07:07;101154.13;;;22.85;31.53
35577;BME280;21680;52.400;16.920;2023-05-12T12:09:35;101153.30;;;22.86;31.43
35577;BME280;21680;52.400;16.920;2023-05-12T12:12:02;101152.51;;;22.91;31.35
35577;BME280;21680;52.400;16.920;2023-05-12T12:14:30;101147.35;;;23.09;31.18
35577;BME280;21680;52.400;16.920;2023-05-12T12:16:56;101147.98;;;23.14;31.04
35577;BME280;21680;52.400;16.920;2023-05-12T12:19:21;101143.85;;;23.21;30.90
35577;BME280;21680;52.400;16.920;2023-05-12T12:21:46;101155.32;;;23.24;30.59
35577;BME280;21680;52.400;16.920;2023-05-12T12:24:11;101154.98;;;23.27;30.73
35577;BME280;21680;52.400;16.920;2023-05-12T12:26:37;101149.98;;;23.35;30.59
35577;BME280;21680;52.400;16.920;2023-05-12T12:29:03;101148.87;;;23.48;30.68
35577;BME280;21680;52.400;16.920;2023-05-12T12:31:29;101144.58;;;23.48;30.33
35577;BME280;21680;52.400;16.920;2023-05-12T12:33:54;101147.27;;;23.40;30.36
35577;BME280;21680;52.400;16.920;2023-05-12T12:36:20;101148.41;;;23.62;30.55
35577;BME280;21680;52.400;16.920;2023-05-12T12:38:45;101148.05;;;23.84;30.42
35577;BME280;21680;52.400;16.920;2023-05-12T12:41:11;101139.09;;;23.94;30.31
35577;BME280;21680;52.400;16.920;2023-05-12T12:43:37;101146.21;;;23.94;29.99